Time;durP1;ratioP1;P1;durP2;ratioP2;P2;SDS_P1;SDS_P2;PMS_P1;PMS_P2;Temp;Humidity;BMP_temperature;BMP_pressure;BME280_temperature;BME280_humidity;BME280_pressure;Samples;Min_cycle;Max_cycle;Signal;HPM_P1;HPM_P2
2023/05/25 00:01:04;;;;;;;14.38;6.13;;;;;;;9.48;86.71;101958.56;4972614;28;20149;-62
2023/05/25 00:03:30;;;;;;;20.83;8.02;;;;;;;9.43;87.05;101955.94;4975274;28;20757;-61
2023/05/25 00:05:56;;;;;;;19.92;7.72;;;;;;;9.39;87.73;101961.88;4972612;28;20053;-61
2023/05/25 00:08:22;;;;;;;16.05;6.35;;;;;;;9.35;87.73;101951.47;4971413;28;20041;-61
2023/05/25 00:10:47;;;;;;;17.73;6.30;;;;;;;9.34;87.73;101954.91;4973708;28;20038;-61
2023/05/25 00:13:13;;;;;;;15.43;7.28;;;;;;;9.34;87.29;101960.94;4977605;28;20811;-61
2023/05/25 00:15:38;;;;;;;16.17;6.72;;;;;;;9.33;87.62;101960.91;4974381;28;20048;-61
2023/05/25 00:18:04;;;;;;;15.25;6.00;;;;;;;9.29;87.32;101959.13;4978791;28;20129;-61
2023/05/25 00:20:31;;;;;;;11.90;7.07;;;;;;;9.25;87.49;101959.91;4983205;28;20042;-61
2023/05/25 00:22:57;;;;;;;16.63;7.30;;;;;;;9.21;88.36;101956.41;4976101;28;20057;-61
2023/05/25 00:25:23;;;;;;;17.67;8.45;;;;;;;9.16;87.80;101959.78;4980093;28;20519;-61
2023/05/25 00:27:48;;;;;;;11.77;6.50;;;;;;;9.11;88.08;101957.97;4977617;28;20129;-61
2023/05/25 00:30:13;;;;;;;14.98;7.15;;;;;;;9.03;87.97;101959.56;4980321;28;20495;-61
2023/05/25 00:32:39;;;;;;;20.60;7.63;;;;;;;8.95;88.27;101957.69;4978693;28;20038;-61
2023/05/25 00:35:05;;;;;;;16.20;6.55;;;;;;;8.90;88.01;101956.75;4981384;28;20034;-61
2023/05/25 00:37:30;;;;;;;13.40;6.45;;;;;;;8.86;88.47;101958.41;4976882;28;20062;-61
2023/05/25 00:39:55;;;;;;;17.35;6.93;;;;;;;8.83;88.74;101958.38;4974746;28;20042;-61
2023/05/25 00:42:22;;;;;;;15.13;6.50;;;;;;;8.79;88.53;101956.56;4979402;28;20070;-61
2023/05/25 00:44:47;;;;;;;19.42;8.02;;;;;;;8.74;88.61;101949.59;4980286;28;20046;-61
2023/05/25 00:47:14;;;;;;;16.75;6.75;;;;;;;8.72;88.70;101947.00;4979658;28;20035;-61
2023/05/25 00:49:40;;;;;;;20.00;7.53;;;;;;;8.71;88.96;101947.81;4975573;28;20891;-61
2023/05/25 00:52:05;;;;;;;16.17;6.95;;;;;;;8.68;89.44;101950.34;4977131;28;20045;-61
2023/05/25 00:54:32;;;;;;;12.43;6.57;;;;;;;8.66;89.65;101958.91;4980118;28;20089;-61
2023/05/25 00:57:03;;;;;;;14.40;6.32;;;;;;;8.62;89.75;101960.53;4984419;28;20105;-61
2023/05/25 00:59:43;;;;;;;14.38;7.00;;;;;;;8.59;89.54;101950.19;4978366;28;20105;-61
2023/05/25 01:02:10;;;;;;;17.35;7.32;;;;;;;8.56;90.20;101957.84;4984461;28;20046;-61
2023/05/25 01:04:51;;;;;;;20.33;7.90;;;;;;;8.53;90.17;101963.81;4985218;28;20041;-61
2023/05/25 01:07:21;;;;;;;20.52;9.73;;;;;;;8.52;91.75;101964.66;4977164;28;20079;-61
2023/05/25 01:09:49;;;;;;;20.45;8.98;;;;;;;8.50;92.08;101960.31;4984307;28;20149;-61
2023/05/25 01:12:15;;;;;;;21.58;9.10;;;;;;;8.45;92.75;101960.25;4983249;28;20690;-61
2023/05/25 01:14:41;;;;;;;14.13;7.95;;;;;;;8.42;92.74;101960.19;4982938;28;20050;-61
2023/05/25 01:17:10;;;;;;;16.48;7.57;;;;;;;8.39;93.55;101962.69;4983143;28;20768;-61
2023/05/25 01:19:39;;;;;;;15.25;7.68;;;;;;;8.37;93.49;101958.31;4982118;28;20041;-61
2023/05/25 01:22:14;;;;;;;16.50;7.95;;;;;;;8.35;93.48;101952.28;4979767;28;20049;-61
2023/05/25 01:24:45;;;;;;;18.70;8.38;;;;;;;8.33;93.16;101956.56;4968717;28;20047;-61
2023/05/25 01:27:17;;;;;;;18.77;8.13;;;;;;;8.32;93.46;101958.25;4982817;28;20046;-61
2023/05/25 01:29:45;;;;;;;16.75;7.57;;;;;;;8.32;93.34;101959.97;4962496;28;20532;-61
2023/05/25 01:32:12;;;;;;;17.05;8.10;;;;;;;8.31;93.43;101965.94;4968530;28;20059;-61
2023/05/25 01:34:40;;;;;;;13.20;8.02;;;;;;;8.28;93.66;101964.16;4962810;28;20035;-61
2023/05/25 01:37:05;;;;;;;17.10;7.22;;;;;;;8.27;93.57;101966.72;4969231;28;21034;-61
2023/05/25 01:39:31;;;;;;;20.70;9.50;;;;;;;8.27;93.76;101967.59;4958480;28;20054;-61
2023/05/25 01:41:56;;;;;;;20.70;9.27;;;;;;;8.26;93.71;101970.13;4990715;28;20285;-61
2023/05/25 01:44:22;;;;;;;21.85;8.90;;;;;;;8.24;94.25;101964.97;4963230;28;20570;-61
2023/05/25 01:46:54;;;;;;;17.38;9.32;;;;;;;8.22;94.47;101965.78;4961864;28;20645;-62
2023/05/25 01:49:34;;;;;;;20.45;8.43;;;;;;;8.19;94.39;101965.72;4961920;28;20057;-61
2023/05/25 01:52:17;;;;;;;19.73;8.60;;;;;;;8.17;94.63;101965.66;4962359;28;20130;-60
2023/05/25 01:54:54;;;;;;;16.35;7.35;;;;;;;8.16;94.99;101960.50;4964512;28;20039;-61
2023/05/25 01:57:20;;;;;;;18.58;8.75;;;;;;;8.14;94.67;101963.03;4964075;28;20034;-61
2023/05/25 01:59:46;;;;;;;13.65;7.82;;;;;;;8.11;94.50;101957.81;4961879;28;20039;-62
2023/05/25 02:02:15;;;;;;;18.77;7.57;;;;;;;8.07;94.81;101963.72;4968519;28;20053;-61
2023/05/25 02:04:42;;;;;;;12.60;7.30;;;;;;;8.04;94.71;101960.25;4968863;28;20034;-61
2023/05/25 02:07:07;;;;;;;15.55;7.78;;;;;;;8.00;95.11;101960.19;4971143;28;20038;-61
2023/05/25 02:09:33;;;;;;;12.40;6.97;;;;;;;7.97;94.42;101957.53;4971370;28;20045;-61
2023/05/25 02:11:58;;;;;;;15.65;8.93;;;;;;;7.95;94.52;101958.34;4967267;28;20751;-61
2023/05/25 02:14:24;;;;;;;16.70;7.97;;;;;;;7.93;94.96;101954.84;4965952;28;20045;-61
2023/05/25 02:16:49;;;;;;;20.17;9.57;;;;;;;7.89;94.55;101948.75;4970873;28;20101;-62
2023/05/25 02:19:15;;;;;;;16.15;8.80;;;;;;;7.87;94.69;101944.44;4962702;28;20042;-61
2023/05/25 02:21:41;;;;;;;18.70;8.68;;;;;;;7.86;95.11;101940.97;5000131;28;21032;-61
2023/05/25 02:24:08;;;;;;;21.40;9.18;;;;;;;7.86;95.59;101946.13;4969177;28;20093;-61
2023/05/25 02:26:37;;;;;;;23.63;11.70;;;;;;;7.88;95.75;101944.47;4962843;28;20045;-62
2023/05/25 02:29:04;;;;;;;18.52;8.80;;;;;;;7.86;95.38;101945.28;4961841;28;20049;-62
2023/05/25 02:31:30;;;;;;;18.75;8.60;;;;;;;7.85;95.41;101940.97;4968540;28;20043;-61
2023/05/25 02:33:55;;;;;;;23.08;8.75;;;;;;;7.80;95.39;101940.84;4967823;28;20051;-61
2023/05/25 02:36:21;;;;;;;20.67;9.38;;;;;;;7.77;95.90;101943.34;4964839;28;20047;-61
2023/05/25 02:38:48;;;;;;;16.60;8.52;;;;;;;7.75;95.86;101951.88;4972032;28;20061;-62
2023/05/25 02:41:15;;;;;;;30.13;11.15;;;;;;;7.72;95.85;101957.84;4966188;28;20526;-61
2023/05/25 02:43:40;;;;;;;22.98;9.73;;;;;;;7.70;95.92;101956.06;4963415;28;20046;-61
2023/05/25 02:46:05;;;;;;;22.00;10.15;;;;;;;7.70;95.61;101958.63;4962798;28;20226;-61
2023/05/25 02:48:31;;;;;;;24.50;10.48;;;;;;;7.67;95.92;101956.00;4964743;28;20635;-61
2023/05/25 02:50:56;;;;;;;25.75;10.18;;;;;;;7.68;96.38;101962.91;4966367;28;20043;-62
2023/05/25 02:53:21;;;;;;;22.10;10.60;;;;;;;7.65;96.17;101963.69;4962858;28;20053;-62
2023/05/25 02:55:47;;;;;;;20.40;9.85;;;;;;;7.62;96.14;101962.75;4964082;28;20775;-62
2023/05/25 02:58:12;;;;;;;26.92;10.55;;;;;;;7.61;96.40;101969.59;4964611;28;20131;-61
2023/05/25 03:00:38;;;;;;;30.45;11.18;;;;;;;7.58;96.49;101964.38;4971363;28;20046;-62
2023/05/25 03:03:03;;;;;;;30.95;10.40;;;;;;;7.56;96.51;101967.75;4967915;28;20038;-61
2023/05/25 03:05:29;;;;;;;17.30;9.73;;;;;;;7.54;96.41;101967.72;4965914;28;20141;-61
2023/05/25 03:07:54;;;;;;;22.10;9.02;;;;;;;7.54;96.66;101974.56;4966301;28;20041;-61
2023/05/25 03:10:20;;;;;;;22.60;8.68;;;;;;;7.52;96.52;101979.69;4975266;28;20070;-61
2023/05/25 03:12:45;;;;;;;27.17;10.10;;;;;;;7.49;96.44;101976.16;4961493;28;20042;-62
2023/05/25 03:15:12;;;;;;;26.90;10.73;;;;;;;7.47;96.40;101971.00;4959895;28;20037;-61
2023/05/25 03:17:38;;;;;;;20.08;10.02;;;;;;;7.44;96.25;101968.34;4974790;28;22446;-61
2023/05/25 03:20:04;;;;;;;23.17;10.13;;;;;;;7.42;96.24;101973.44;4961836;28;20747;-61
2023/05/25 03:22:30;;;;;;;19.95;10.23;;;;;;;7.44;96.44;101976.06;4963160;28;20077;-61
2023/05/25 03:24:55;;;;;;;23.13;9.30;;;;;;;7.43;96.52;101985.47;4959709;28;20722;-61
2023/05/25 03:27:21;;;;;;;26.65;9.23;;;;;;;7.42;96.34;101988.88;4966444;28;20110;-61
2023/05/25 03:29:49;;;;;;;22.33;8.77;;;;;;;7.42;96.42;101985.44;4965765;28;20035;-61
2023/05/25 03:32:14;;;;;;;19.17;9.48;;;;;;;7.42;96.52;101995.72;4967730;28;20086;-61
2023/05/25 03:34:40;;;;;;;21.42;8.73;;;;;;;7.39;96.58;101991.38;4977578;28;20521;-61
2023/05/25 03:37:05;;;;;;;18.48;9.57;;;;;;;7.38;96.58;101993.91;4975701;28;20069;-61
2023/05/25 03:39:30;;;;;;;27.67;11.68;;;;;;;7.36;96.36;101990.41;4960750;28;20073;-61
2023/05/25 03:41:56;;;;;;;21.75;10.85;;;;;;;7.39;96.20;101998.22;4969043;28;20116;-61
2023/05/25 03:44:22;;;;;;;23.05;10.85;;;;;;;7.42;96.42;102003.44;4963792;28;21292;-61
2023/05/25 03:46:48;;;;;;;26.85;10.07;;;;;;;7.44;96.47;102009.50;4969874;28;20045;-62
2023/05/25 03:49:13;;;;;;;20.35;10.38;;;;;;;7.45;96.43;102006.06;4974146;28;20041;-61
2023/05/25 03:51:41;;;;;;;23.77;10.20;;;;;;;7.47;96.56;102009.56;4962468;28;20684;-61
2023/05/25 03:54:06;;;;;;;26.10;10.55;;;;;;;7.47;96.19;102014.72;4963749;28;20066;-61
2023/05/25 03:56:32;;;;;;;27.45;11.00;;;;;;;7.48;96.22;102026.72;4963591;28;20721;-61
2023/05/25 03:58:59;;;;;;;23.20;11.07;;;;;;;7.48;95.67;102013.88;4969342;28;20525;-61
2023/05/25 04:01:25;;;;;;;22.95;9.80;;;;;;;7.54;95.98;102023.44;4960379;28;20171;-61
2023/05/25 04:03:51;;;;;;;23.45;11.40;;;;;;;7.58;95.70;102017.53;4962582;28;20108;-61
2023/05/25 04:06:18;;;;;;;21.95;10.07;;;;;;;7.63;95.45;102018.50;4964433;28;20026;-62
2023/05/25 04:08:44;;;;;;;20.02;10.00;;;;;;;7.69;95.90;102024.66;4975481;28;20632;-61
2023/05/25 04:11:10;;;;;;;21.92;11.02;;;;;;;7.74;95.18;102020.53;4960262;28;20680;-61
2023/05/25 04:13:38;;;;;;;17.85;9.52;;;;;;;7.79;95.29;102029.22;4975562;28;20126;-61
2023/05/25 04:16:05;;;;;;;21.73;10.70;;;;;;;7.88;95.31;102025.97;4966809;28;20073;-62
2023/05/25 04:18:30;;;;;;;25.05;10.90;;;;;;;7.93;95.27;102030.38;4967405;28;20042;-61
2023/05/25 04:20:56;;;;;;;23.38;10.52;;;;;;;8.00;94.73;102028.81;4967200;28;20227;-61
2023/05/25 04:23:22;;;;;;;25.60;10.48;;;;;;;8.06;94.53;102036.69;4962303;28;20053;-61
2023/05/25 04:25:49;;;;;;;26.33;10.05;;;;;;;8.11;94.14;102034.19;4962332;28;20452;-61
2023/05/25 04:28:15;;;;;;;23.02;9.82;;;;;;;8.19;94.55;102032.69;4948228;28;20045;-61
2023/05/25 04:30:41;;;;;;;24.38;11.05;;;;;;;8.25;94.48;102027.66;4961926;28;20034;-61
2023/05/25 04:33:10;;;;;;;24.63;9.70;;;;;;;8.32;93.98;102026.94;4966716;28;20038;-61
2023/05/25 04:35:36;;;;;;;23.30;10.18;;;;;;;8.39;93.82;102036.53;4977835;28;20046;-61
2023/05/25 04:38:03;;;;;;;17.23;9.80;;;;;;;8.49;93.37;102033.28;4972635;28;20049;-61
2023/05/25 04:40:31;;;;;;;18.55;9.90;;;;;;;8.58;93.25;102043.78;4978370;28;20026;-61
2023/05/25 04:42:57;;;;;;;18.63;9.73;;;;;;;8.69;93.67;102039.72;4974768;28;20077;-61
2023/05/25 04:45:23;;;;;;;21.25;10.25;;;;;;;8.80;93.04;102043.38;4978045;28;20033;-61
2023/05/25 04:47:48;;;;;;;21.88;9.82;;;;;;;8.89;93.25;102040.09;4976268;28;20057;-62
2023/05/25 04:50:14;;;;;;;22.55;10.23;;;;;;;8.97;93.13;102043.69;4976737;28;20168;-61
2023/05/25 04:52:39;;;;;;;26.77;10.57;;;;;;;9.03;92.23;102039.50;4974519;28;20043;-61
2023/05/25 04:55:05;;;;;;;26.77;11.18;;;;;;;9.13;91.93;102043.13;4977854;28;20039;-61
2023/05/25 04:57:31;;;;;;;25.67;11.05;;;;;;;9.23;92.20;102044.19;4977312;28;20137;-67
2023/05/25 04:59:57;;;;;;;21.83;9.90;;;;;;;9.29;91.43;102047.69;4980898;28;20062;-66
2023/05/25 05:02:23;;;;;;;24.85;10.60;;;;;;;9.39;91.71;102057.34;4981512;28;20085;-66
2023/05/25 05:04:52;;;;;;;20.80;10.65;;;;;;;9.47;91.02;102054.88;4982353;28;20038;-67
2023/05/25 05:07:19;;;;;;;25.80;11.15;;;;;;;9.53;90.18;102063.59;4977761;28;20054;-62
2023/05/25 05:09:44;;;;;;;26.95;11.27;;;;;;;9.59;90.55;102063.75;4975387;28;20176;-62
2023/05/25 05:12:10;;;;;;;22.38;11.20;;;;;;;9.61;91.13;102071.53;4976190;28;20613;-62
2023/05/25 05:14:35;;;;;;;20.35;10.93;;;;;;;9.65;90.32;102076.75;4975583;28;20058;-62
2023/05/25 05:17:00;;;;;;;23.15;10.63;;;;;;;9.75;90.60;102075.19;4980963;28;20030;-62
2023/05/25 05:19:26;;;;;;;23.27;10.60;;;;;;;9.83;90.23;102083.03;4979849;28;20411;-62
2023/05/25 05:21:52;;;;;;;19.77;10.13;;;;;;;9.84;89.45;102082.22;4976663;28;20113;-62
2023/05/25 05:24:17;;;;;;;21.00;11.25;;;;;;;9.93;89.07;102087.50;4977260;28;20895;-62
2023/05/25 05:26:43;;;;;;;25.00;10.00;;;;;;;10.02;89.12;102088.53;4975783;28;20042;-62
2023/05/25 05:29:08;;;;;;;27.27;10.43;;;;;;;10.14;89.80;102087.84;4981103;28;20098;-62
2023/05/25 05:31:35;;;;;;;27.55;10.90;;;;;;;10.26;89.68;102089.72;4979539;28;20450;-62
2023/05/25 05:34:00;;;;;;;25.05;10.80;;;;;;;10.36;88.71;102086.41;4979854;28;20446;-61
2023/05/25 05:36:28;;;;;;;24.90;10.90;;;;;;;10.43;88.65;102078.75;4977646;28;20038;-62
2023/05/25 05:38:54;;;;;;;24.77;11.18;;;;;;;10.56;88.74;102084.97;4978243;28;20038;-62
2023/05/25 05:41:20;;;;;;;21.40;10.93;;;;;;;10.64;88.38;102084.22;5008096;28;20034;-62
2023/05/25 05:43:46;;;;;;;23.42;10.98;;;;;;;10.76;87.92;102083.50;4975276;28;20045;-62
2023/05/25 05:46:12;;;;;;;21.70;11.23;;;;;;;10.85;87.39;102086.19;4978290;28;20033;-62
2023/05/25 05:48:37;;;;;;;33.10;11.95;;;;;;;10.95;87.62;102080.25;4980181;28;20038;-62
2023/05/25 05:51:04;;;;;;;27.23;11.13;;;;;;;10.99;86.70;102084.63;4980822;28;20065;-62
2023/05/25 05:53:31;;;;;;;28.67;11.70;;;;;;;11.02;86.39;102087.22;4977970;28;20042;-61
2023/05/25 05:55:58;;;;;;;25.73;11.02;;;;;;;11.10;86.00;102092.50;4979549;28;20026;-61
2023/05/25 05:58:27;;;;;;;35.85;13.48;;;;;;;11.14;85.69;102086.50;4980747;28;20034;-62
2023/05/25 06:00:53;;;;;;;25.25;12.05;;;;;;;11.11;84.56;102089.91;4979284;28;20076;-62
2023/05/25 06:03:19;;;;;;;24.10;10.90;;;;;;;11.18;84.30;102098.63;4976592;28;20053;-62
2023/05/25 06:05:45;;;;;;;20.52;10.80;;;;;;;11.23;84.81;102091.75;4978933;28;20047;-62
2023/05/25 06:08:10;;;;;;;24.33;11.38;;;;;;;11.27;83.38;102081.47;4981066;28;20406;-61
2023/05/25 06:10:37;;;;;;;28.45;11.38;;;;;;;11.28;83.20;102085.78;4968184;28;20041;-62
2023/05/25 06:13:02;;;;;;;31.70;11.52;;;;;;;11.38;83.06;102083.28;4969266;28;20138;-61
2023/05/25 06:15:27;;;;;;;20.13;9.95;;;;;;;11.45;83.38;102090.28;4973095;28;20118;-62
2023/05/25 06:17:53;;;;;;;29.20;10.93;;;;;;;11.50;82.71;102088.59;4976885;28;20073;-61
2023/05/25 06:20:18;;;;;;;21.02;11.05;;;;;;;11.57;82.62;102093.00;4981586;28;20042;-61
2023/05/25 06:22:43;;;;;;;22.23;11.02;;;;;;;11.63;81.58;102090.47;4983248;28;20067;-61
2023/05/25 06:25:09;;;;;;;23.08;10.75;;;;;;;11.68;81.41;102089.63;4982665;28;20455;-62
2023/05/25 06:27:37;;;;;;;21.15;10.10;;;;;;;11.77;81.26;102099.19;4985203;28;20089;-61
2023/05/25 06:30:03;;;;;;;29.60;11.88;;;;;;;11.84;80.49;102096.66;4984219;28;20732;-62
2023/05/25 06:32:28;;;;;;;20.63;10.20;;;;;;;11.93;80.45;102101.03;4982394;28;20196;-62
2023/05/25 06:34:54;;;;;;;16.35;10.02;;;;;;;12.02;79.97;102098.50;4982065;28;20038;-62
2023/05/25 06:37:20;;;;;;;26.65;10.93;;;;;;;12.06;78.40;102091.63;4983740;28;20034;-61
2023/05/25 06:39:46;;;;;;;24.42;11.38;;;;;;;12.15;78.80;102102.94;4982684;28;20611;-61
2023/05/25 06:42:11;;;;;;;30.60;10.95;;;;;;;12.16;77.44;102094.31;4980048;28;20054;-62
2023/05/25 06:44:36;;;;;;;26.55;11.57;;;;;;;12.13;77.21;102101.19;4972614;28;20042;-61
2023/05/25 06:47:02;;;;;;;28.77;11.10;;;;;;;12.18;77.82;102108.13;4980139;28;20076;-62
2023/05/25 06:49:28;;;;;;;26.60;11.60;;;;;;;12.30;77.02;102105.63;4970834;28;20104;-62
2023/05/25 06:51:53;;;;;;;32.13;11.75;;;;;;;12.34;77.53;102104.78;4968226;28;20043;-61
2023/05/25 06:54:18;;;;;;;24.20;11.27;;;;;;;12.45;76.89;102108.31;4969706;28;20045;-61
2023/05/25 06:56:44;;;;;;;27.70;10.93;;;;;;;12.45;76.31;102108.31;4970146;28;21101;-62
2023/05/25 06:59:10;;;;;;;25.48;10.80;;;;;;;12.45;76.30;102108.31;4978864;28;20085;-62
2023/05/25 07:01:36;;;;;;;18.40;9.98;;;;;;;12.55;76.80;102113.53;4983998;28;20483;-61
2023/05/25 07:04:01;;;;;;;30.10;11.18;;;;;;;12.63;75.48;102099.75;4980952;28;20054;-61
2023/05/25 07:06:27;;;;;;;20.67;10.27;;;;;;;12.76;75.45;102105.84;4982315;28;20184;-61
2023/05/25 07:08:54;;;;;;;23.05;10.25;;;;;;;12.88;75.61;102103.31;4979451;28;21073;-62
2023/05/25 07:11:19;;;;;;;19.67;9.60;;;;;;;12.96;75.40;102107.66;4982066;28;20092;-62
2023/05/25 07:13:45;;;;;;;23.88;11.35;;;;;;;13.02;74.73;102091.28;4970027;28;20046;-62
2023/05/25 07:16:10;;;;;;;22.50;11.68;;;;;;;13.07;74.29;102092.13;4974506;28;20542;-62
2023/05/25 07:18:39;;;;;;;20.83;10.63;;;;;;;13.06;73.59;102082.59;4982379;28;20048;-62
2023/05/25 07:21:05;;;;;;;23.23;9.40;;;;;;;13.19;73.75;102080.91;4980949;28;20042;-62
2023/05/25 07:23:31;;;;;;;17.45;9.02;;;;;;;13.29;74.21;102088.75;4983296;28;20038;-62
2023/05/25 07:25:56;;;;;;;23.45;10.88;;;;;;;13.21;73.04;102073.97;4981216;28;20554;-62
2023/05/25 07:28:21;;;;;;;22.88;11.35;;;;;;;13.33;73.23;102084.38;4983132;28;20025;-62
2023/05/25 07:30:47;;;;;;;23.30;10.55;;;;;;;13.42;72.23;102068.81;4983523;28;20038;-62
2023/05/25 07:33:12;;;;;;;23.77;11.57;;;;;;;13.52;72.99;102086.16;4982759;28;20042;-62
2023/05/25 07:35:37;;;;;;;18.05;9.68;;;;;;;13.62;72.72;102087.03;4983332;28;20125;-62
2023/05/25 07:38:03;;;;;;;25.02;10.38;;;;;;;13.68;73.48;102100.03;4978254;28;20058;-61
2023/05/25 07:40:29;;;;;;;23.08;10.70;;;;;;;13.81;72.05;102068.81;4983689;28;20044;-62
2023/05/25 07:42:55;;;;;;;22.60;9.68;;;;;;;13.92;71.56;102074.03;4980428;28;20069;-62
2023/05/25 07:45:21;;;;;;;20.60;9.55;;;;;;;13.88;69.82;102041.09;4979750;28;20045;-62
2023/05/25 07:47:46;;;;;;;22.38;10.38;;;;;;;13.96;70.51;102067.94;4985014;28;20062;-62
2023/05/25 07:50:13;;;;;;;24.58;11.18;;;;;;;13.87;69.97;102065.34;4982120;28;20038;-62
2023/05/25 07:52:38;;;;;;;23.00;10.82;;;;;;;13.98;70.60;102071.38;4981949;28;20494;-62
2023/05/25 07:55:05;;;;;;;23.27;10.35;;;;;;;14.10;70.75;102077.44;4978140;28;20118;-62
2023/05/25 07:57:31;;;;;;;20.45;9.75;;;;;;;14.21;70.63;102079.16;4976878;28;20129;-62
2023/05/25 07:59:56;;;;;;;24.50;10.50;;;;;;;14.19;69.47;102052.31;4982729;28;20039;-62
2023/05/25 08:02:22;;;;;;;25.60;9.98;;;;;;;14.20;69.00;102057.50;4979537;28;20073;-62
2023/05/25 08:04:47;;;;;;;18.38;9.88;;;;;;;14.27;68.43;102053.16;4980867;28;20616;-62
2023/05/25 08:07:12;;;;;;;24.02;10.95;;;;;;;14.17;69.50;102073.09;4980149;28;20026;-62
2023/05/25 08:09:38;;;;;;;24.52;12.23;;;;;;;14.22;70.33;102075.72;4982313;28;20515;-62
2023/05/25 08:12:03;;;;;;;26.13;11.02;;;;;;;14.37;69.92;102076.50;4980196;28;20069;-62
2023/05/25 08:14:29;;;;;;;24.52;11.05;;;;;;;14.43;69.61;102068.72;4982213;28;20044;-62
2023/05/25 08:16:54;;;;;;;24.88;11.40;;;;;;;14.59;68.82;102059.13;4983967;28;20035;-62
2023/05/25 08:19:19;;;;;;;25.00;10.70;;;;;;;14.69;68.92;102044.34;4985538;28;20034;-61
2023/05/25 08:21:45;;;;;;;23.67;9.90;;;;;;;14.81;68.38;102045.13;4983590;28;20130;-61
2023/05/25 08:24:10;;;;;;;25.48;10.27;;;;;;;14.86;67.34;102032.09;4980273;28;20093;-62
2023/05/25 08:26:36;;;;;;;33.65;11.93;;;;;;;14.87;67.18;102021.66;4976558;28;20126;-62
2023/05/25 08:29:04;;;;;;;23.73;10.50;;;;;;;14.78;67.45;102031.28;4979914;28;20069;-62
2023/05/25 08:31:31;;;;;;;21.60;10.60;;;;;;;14.97;68.41;102049.38;4982351;28;20030;-62
2023/05/25 08:33:56;;;;;;;23.23;10.35;;;;;;;15.07;68.39;102056.28;4980447;28;20042;-63
2023/05/25 08:36:23;;;;;;;23.08;11.30;;;;;;;15.15;66.53;102023.22;4979358;28;20621;-62
2023/05/25 08:38:48;;;;;;;22.13;10.30;;;;;;;15.26;66.30;102024.88;4980146;28;20049;-61
2023/05/25 08:41:14;;;;;;;27.90;11.60;;;;;;;15.31;66.48;102021.38;4982667;28;20034;-62
2023/05/25 08:43:41;;;;;;;20.52;10.25;;;;;;;15.40;66.45;102026.53;4980235;28;20041;-62
2023/05/25 08:46:07;;;;;;;24.55;10.45;;;;;;;15.46;66.35;102026.47;4978615;28;20129;-62
2023/05/25 08:48:34;;;;;;;21.88;11.32;;;;;;;15.59;65.96;102016.78;4981261;28;20262;-62
2023/05/25 08:51:05;;;;;;;22.98;9.48;;;;;;;15.67;65.35;102007.22;4980585;28;20031;-62
2023/05/25 08:53:35;;;;;;;21.27;11.07;;;;;;;15.80;65.15;102015.75;4978596;28;20038;-62
2023/05/25 08:56:04;;;;;;;19.67;10.45;;;;;;;16.03;65.67;102008.53;4979053;28;20037;-62
2023/05/25 08:58:33;;;;;;;24.35;9.55;;;;;;;16.13;64.46;101986.69;4976701;28;20113;-62
2023/05/25 09:01:03;;;;;;;17.88;8.75;;;;;;;16.22;62.95;101970.94;4981394;28;20403;-62
2023/05/25 09:03:29;;;;;;;22.17;9.23;;;;;;;16.34;62.23;101960.34;4977869;28;20440;-62
2023/05/25 09:05:58;;;;;;;22.50;10.68;;;;;;;16.52;63.06;101965.31;4978335;28;20679;-62
2023/05/25 09:08:25;;;;;;;20.50;8.73;;;;;;;16.60;61.78;101953.03;4977908;28;20329;-62
2023/05/25 09:10:52;;;;;;;18.23;8.52;;;;;;;16.74;61.40;101937.19;4982558;28;20072;-62
2023/05/25 09:13:18;;;;;;;24.00;9.27;;;;;;;17.10;58.80;101894.81;4981927;28;20030;-62
2023/05/25 09:15:44;;;;;;;24.92;8.57;;;;;;;17.39;59.11;101921.28;4979888;28;20038;-62
2023/05/25 09:18:09;;;;;;;20.55;8.85;;;;;;;17.23;58.72;101919.84;4979215;28;20044;-61
2023/05/25 09:20:35;;;;;;;17.80;8.13;;;;;;;17.24;59.15;101934.66;4982518;28;20060;-62
2023/05/25 09:23:01;;;;;;;17.10;7.80;;;;;;;17.59;58.62;101923.56;4983973;28;20032;-62
2023/05/25 09:25:27;;;;;;;20.67;8.35;;;;;;;17.56;57.70;101917.50;4982686;28;20403;-62
2023/05/25 09:27:57;;;;;;;22.27;9.27;;;;;;;18.00;58.44;101928.00;4980898;28;20595;-62
2023/05/25 09:30:23;;;;;;;18.00;8.52;;;;;;;18.03;56.52;101903.53;4985740;28;20038;-62
2023/05/25 09:32:49;;;;;;;17.67;7.32;;;;;;;17.98;56.06;101901.00;4983037;28;20044;-61
2023/05/25 09:35:14;;;;;;;18.88;7.60;;;;;;;17.93;56.37;101910.69;4983779;28;20038;-62
2023/05/25 09:37:41;;;;;;;19.45;7.60;;;;;;;18.08;55.74;101904.31;4981774;28;20657;-62
2023/05/25 09:40:08;;;;;;;16.75;6.78;;;;;;;18.32;55.45;101899.38;4986568;28;20042;-62
2023/05/25 09:42:34;;;;;;;17.25;7.43;;;;;;;18.43;53.44;101865.13;4988394;28;20105;-62
2023/05/25 09:45:00;;;;;;;18.10;7.95;;;;;;;18.33;54.11;101882.78;4982344;28;20035;-62
2023/05/25 09:47:26;;;;;;;17.65;7.53;;;;;;;18.51;53.67;101871.03;4981716;28;20031;-62
2023/05/25 09:49:52;;;;;;;13.30;6.38;;;;;;;18.95;53.21;101860.38;4985821;28;20065;-62
2023/05/25 09:52:18;;;;;;;16.52;7.00;;;;;;;19.28;52.82;101850.75;4984616;28;20118;-62
2023/05/25 09:54:49;;;;;;;16.85;7.18;;;;;;;19.46;51.79;101846.78;4977779;28;20057;-63
2023/05/25 09:57:15;;;;;;;19.00;7.40;;;;;;;19.59;50.97;101828.00;4982853;28;20082;-62
2023/05/25 09:59:42;;;;;;;17.45;7.15;;;;;;;19.78;50.67;101823.09;4984285;28;20031;-62
2023/05/25 10:02:08;;;;;;;16.27;6.40;;;;;;;19.82;51.24;101835.25;4982797;28;20057;-62
2023/05/25 10:04:33;;;;;;;19.13;7.40;;;;;;;20.16;50.56;101829.84;4982336;28;20488;-62
2023/05/25 10:07:03;;;;;;;14.68;6.80;;;;;;;19.69;50.81;101843.47;4981367;28;20789;-62
2023/05/25 10:09:29;;;;;;;17.05;7.15;;;;;;;19.24;51.57;101854.34;4985559;28;20499;-62
2023/05/25 10:11:56;;;;;;;14.10;7.22;;;;;;;18.90;53.05;101891.06;4981345;28;20076;-62
2023/05/25 10:14:28;;;;;;;16.52;7.38;;;;;;;18.89;54.10;101910.28;4977484;28;20128;-63
2023/05/25 10:16:56;;;;;;;16.08;6.65;;;;;;;19.31;52.22;101876.03;4979460;28;20479;-62
2023/05/25 10:19:32;;;;;;;17.92;6.03;;;;;;;19.67;50.46;101840.94;4981169;28;20177;-63
2023/05/25 10:22:06;;;;;;;12.98;5.43;;;;;;;20.10;49.54;101814.28;4981247;28;20034;-63
2023/05/25 10:24:52;;;;;;;14.57;5.82;;;;;;;19.70;48.48;101803.25;4982766;28;20054;-62
2023/05/25 10:27:21;;;;;;;13.00;5.07;;;;;;;19.59;48.97;101824.56;4973379;28;20791;-62
2023/05/25 10:29:48;;;;;;;14.35;5.57;;;;;;;19.15;49.89;101835.38;4981261;28;20516;-63
2023/05/25 10:32:16;;;;;;;11.93;5.40;;;;;;;19.21;49.71;101835.22;4983671;28;20093;-63
2023/05/25 10:34:41;;;;;;;9.52;4.82;;;;;;;19.92;49.02;101828.81;4981327;28;20085;-62
2023/05/25 10:37:08;;;;;;;13.23;5.43;;;;;;;19.55;47.95;101796.69;4980932;28;20054;-68
2023/05/25 10:39:35;;;;;;;8.90;4.32;;;;;;;19.42;48.72;101811.91;4960447;28;20042;-62
2023/05/25 10:42:02;;;;;;;10.13;4.72;;;;;;;19.26;50.05;101841.22;4964428;28;20051;-62
2023/05/25 10:44:29;;;;;;;14.80;4.78;;;;;;;19.39;49.04;101838.22;4965046;28;20797;-66
2023/05/25 10:46:56;;;;;;;10.63;4.72;;;;;;;19.60;48.17;101803.50;4957527;28;20031;-63
2023/05/25 10:49:34;;;;;;;8.25;4.20;;;;;;;19.82;47.63;101798.53;4961566;28;20034;-63
2023/05/25 10:52:01;;;;;;;11.55;4.25;;;;;;;19.99;47.95;101800.63;4971929;28;20042;-62
2023/05/25 10:54:34;;;;;;;10.93;4.03;;;;;;;20.08;47.63;101803.84;4962650;28;20136;-62
2023/05/25 10:57:20;;;;;;;8.50;3.60;;;;;;;20.42;45.90;101769.47;4966388;28;20158;-63
2023/05/25 10:59:58;;;;;;;10.50;4.43;;;;;;;19.85;46.69;101798.44;4963715;28;21476;-63
2023/05/25 11:02:27;;;;;;;12.88;4.93;;;;;;;19.77;47.49;101810.88;4963226;28;20858;-63
2023/05/25 11:05:25;;;;;;;7.00;4.00;;;;;;;20.39;46.91;101795.00;4959675;28;20031;-62
2023/05/25 11:07:54;;;;;;;9.43;5.07;;;;;;;20.41;46.40;101796.66;4964445;28;20034;-62
2023/05/25 11:10:42;;;;;;;13.85;4.45;;;;;;;20.84;45.30;101769.00;4970710;28;20515;-63
2023/05/25 11:13:32;;;;;;;10.23;4.47;;;;;;;20.64;45.98;101780.13;5004427;28;20145;-63
2023/05/25 11:16:20;;;;;;;12.02;3.92;;;;;;;20.61;44.58;101767.97;4969111;28;20057;-63